Time;durP1;ratioP1;P1;durP2;ratioP2;P2;SDS_P1;SDS_P2;PMS_P1;PMS_P2;Temp;Humidity;BMP_temperature;BMP_pressure;BME280_temperature;BME280_humidity;BME280_pressure;Samples;Min_cycle;Max_cycle;Signal;HPM_P1;HPM_P2
2022/05/31 00:00:59;;;;;;;17.27;12.82;;;;;;;17.32;100.00;100807.91;1725923;81;21246;-84
2022/05/31 00:03:27;;;;;;;18.48;12.95;;;;;;;17.18;100.00;100814.08;1743903;82;21015;-85
2022/05/31 00:05:55;;;;;;;16.80;12.58;;;;;;;17.07;100.00;100811.69;1719890;81;20969;-83
2022/05/31 00:08:24;;;;;;;16.27;12.68;;;;;;;17.03;100.00;100811.67;1707763;82;21016;-85
2022/05/31 00:10:52;;;;;;;17.00;13.35;;;;;;;17.03;100.00;100819.06;1707864;82;21502;-86
2022/05/31 00:13:19;;;;;;;14.70;13.13;;;;;;;17.05;100.00;100822.88;1686245;82;21222;-86
2022/05/31 00:15:46;;;;;;;16.97;12.53;;;;;;;17.07;100.00;100820.08;1707748;82;21071;-86
2022/05/31 00:18:13;;;;;;;14.18;12.68;;;;;;;17.08;100.00;100813.84;1708198;82;21515;-87
2022/05/31 00:20:40;;;;;;;13.48;12.23;;;;;;;17.08;100.00;100805.95;1707888;82;21616;-85
2022/05/31 00:23:08;;;;;;;18.27;14.03;;;;;;;17.08;100.00;100812.02;1707945;82;21092;-86
2022/05/31 00:25:36;;;;;;;19.45;14.03;;;;;;;17.10;100.00;100810.58;1707738;82;21545;-88
2022/05/31 00:28:05;;;;;;;15.13;13.48;;;;;;;17.08;100.00;100817.79;1707509;82;21942;-85
2022/05/31 00:30:33;;;;;;;16.77;14.05;;;;;;;17.07;100.00;100817.45;1707787;82;21510;-86
2022/05/31 00:33:02;;;;;;;14.60;13.08;;;;;;;17.06;100.00;100818.42;1707800;82;20989;-84
2022/05/31 00:35:33;;;;;;;13.90;12.20;;;;;;;17.06;100.00;100823.69;1707942;82;21092;-84
2022/05/31 00:38:01;;;;;;;13.90;12.47;;;;;;;17.07;100.00;100824.84;1708261;82;21787;-85
2022/05/31 00:40:31;;;;;;;13.55;12.13;;;;;;;17.10;100.00;100824.55;1707857;82;21087;-87
2022/05/31 00:43:04;;;;;;;13.83;12.07;;;;;;;17.14;100.00;100814.54;1708122;82;21316;-86
2022/05/31 00:45:39;;;;;;;16.50;12.53;;;;;;;17.17;100.00;100810.30;1705579;82;21664;-84
2022/05/31 00:48:12;;;;;;;13.75;12.35;;;;;;;17.19;100.00;100805.69;1708095;82;21593;-84
2022/05/31 00:50:48;;;;;;;15.00;13.30;;;;;;;17.22;100.00;100811.97;1702098;82;21164;-83
2022/05/31 00:53:21;;;;;;;17.17;13.05;;;;;;;17.21;100.00;100803.73;1707757;82;21005;-84
2022/05/31 00:55:54;;;;;;;13.90;12.68;;;;;;;17.23;100.00;100808.36;1731166;82;21386;-85
2022/05/31 00:58:49;;;;;;;14.33;12.85;;;;;;;17.16;100.00;100805.51;1705465;82;21071;-84
2022/05/31 01:01:18;;;;;;;15.55;12.98;;;;;;;17.10;100.00;100806.13;1707865;82;21123;-88
2022/05/31 01:03:47;;;;;;;13.98;12.58;;;;;;;17.06;100.00;100807.43;1707728;83;21160;-86
2022/05/31 01:06:15;;;;;;;13.38;12.18;;;;;;;17.05;100.00;100810.20;1713685;81;20960;-85
2022/05/31 01:08:45;;;;;;;14.53;12.40;;;;;;;17.07;100.00;100809.55;1725953;81;21044;-85
2022/05/31 01:11:42;;;;;;;14.33;13.00;;;;;;;17.10;100.00;100812.70;1726102;81;21032;-84
2022/05/31 01:14:13;;;;;;;14.10;12.73;;;;;;;17.15;100.00;100813.56;1726329;83;21042;-85
2022/05/31 01:17:04;;;;;;;14.30;12.90;;;;;;;17.18;100.00;100814.58;1726181;81;21153;-84
2022/05/31 01:20:01;;;;;;;13.55;12.28;;;;;;;17.20;100.00;100812.60;1662799;86;21123;-84
2022/05/31 01:22:38;;;;;;;13.70;12.40;;;;;;;17.24;100.00;100811.33;1721547;81;20983;-83
2022/05/31 01:25:27;;;;;;;14.83;12.20;;;;;;;17.25;100.00;100816.09;1685308;83;21124;-89
2022/05/31 01:28:45;;;;;;;13.48;12.25;;;;;;;17.25;100.00;100814.77;1661750;86;21096;-87
2022/05/31 01:31:30;;;;;;;14.10;12.55;;;;;;;17.25;100.00;100818.25;1691080;83;21254;-85
2022/05/31 01:34:20;;;;;;;14.33;12.45;;;;;;;17.25;100.00;100826.61;1722303;81;21513;-86
2022/05/31 01:36:54;;;;;;;14.63;13.13;;;;;;;17.24;100.00;100827.59;1724552;81;21525;-85
2022/05/31 01:39:45;;;;;;;16.95;13.53;;;;;;;17.24;100.00;100824.48;1726017;81;21627;-85
2022/05/31 01:42:35;;;;;;;14.10;12.73;;;;;;;17.23;100.00;100829.41;1710069;81;21027;-83
2022/05/31 01:45:19;;;;;;;13.43;12.13;;;;;;;17.21;100.00;100830.55;1740248;81;21224;-91
2022/05/31 01:47:47;;;;;;;14.78;13.28;;;;;;;17.17;100.00;100835.30;1724824;81;21534;-84
2022/05/31 01:50:19;;;;;;;14.30;12.80;;;;;;;17.09;100.00;100843.94;1725775;81;20999;-85
2022/05/31 01:52:47;;;;;;;;;;;;;;;16.89;100.00;100849.83;1723669;81;21032;-85
2022/05/31 01:55:17;;;;;;;15.90;12.88;;;;;;;16.63;100.00;100845.31;1725962;81;20450;-84
2022/05/31 01:57:49;;;;;;;14.68;12.65;;;;;;;16.43;100.00;100846.42;1725740;82;21149;-85
2022/05/31 02:00:18;;;;;;;13.90;12.47;;;;;;;16.31;100.00;100847.94;1725895;81;20991;-84
2022/05/31 02:02:49;;;;;;;13.18;11.97;;;;;;;16.27;100.00;100851.84;1725926;81;21130;-84
2022/05/31 02:05:17;;;;;;;13.50;12.20;;;;;;;16.28;100.00;100848.72;1728506;81;21052;-84
2022/05/31 02:08:04;;;;;;;12.73;11.57;;;;;;;16.30;100.00;100851.56;1728503;81;21600;-84
2022/05/31 02:10:34;;;;;;;13.13;11.78;;;;;;;16.36;100.00;100853.59;1757785;81;21814;-85
2022/05/31 02:13:03;;;;;;;14.68;12.20;;;;;;;16.40;100.00;100849.69;1729054;83;21074;-88
2022/05/31 02:15:33;;;;;;;15.85;11.48;;;;;;;16.44;100.00;100852.03;1731742;81;21000;-86
2022/05/31 02:18:05;;;;;;;13.85;12.40;;;;;;;16.47;100.00;100853.02;1731868;81;38650;-84
2022/05/31 02:20:43;;;;;;;12.55;11.35;;;;;;;16.52;100.00;100856.05;1731952;81;21668;-83
2022/05/31 02:23:10;;;;;;;14.47;12.13;;;;;;;16.56;100.00;100857.40;1728895;81;21189;-84
2022/05/31 02:25:37;;;;;;;12.93;11.78;;;;;;;16.59;100.00;100858.42;1728740;81;21620;-87
2022/05/31 02:28:05;;;;;;;14.98;12.00;;;;;;;16.62;100.00;100849.41;1728792;81;21081;-88
2022/05/31 02:30:33;;;;;;;13.13;11.83;;;;;;;16.63;100.00;100843.99;1728687;81;21078;-88
2022/05/31 02:33:00;;;;;;;13.50;12.18;;;;;;;16.67;100.00;100849.31;1728861;82;21078;-88
2022/05/31 02:35:29;;;;;;;13.05;11.03;;;;;;;16.68;100.00;100845.70;1728771;81;21709;-85
2022/05/31 02:37:58;;;;;;;13.65;12.25;;;;;;;16.69;100.00;100845.20;1728558;81;21541;-84
2022/05/31 02:40:27;;;;;;;13.55;12.33;;;;;;;16.68;100.00;100843.08;1728562;81;21043;-85
2022/05/31 02:42:54;;;;;;;13.58;12.20;;;;;;;16.66;100.00;100841.08;1728639;81;21063;-86
2022/05/31 02:45:22;;;;;;;14.33;13.03;;;;;;;16.65;100.00;100837.30;1728510;81;21086;-84
2022/05/31 02:47:50;;;;;;;13.48;12.00;;;;;;;16.63;100.00;100830.84;1728837;81;21831;-84
2022/05/31 02:50:18;;;;;;;13.08;11.78;;;;;;;16.64;100.00;100838.27;1728939;81;20924;-84
2022/05/31 02:52:47;;;;;;;13.68;11.97;;;;;;;16.70;100.00;100832.40;1728658;81;21497;-85
2022/05/31 02:55:14;;;;;;;13.85;12.35;;;;;;;16.76;100.00;100841.50;1757767;81;21501;-84
2022/05/31 02:58:00;;;;;;;12.05;10.85;;;;;;;16.79;100.00;100838.08;1729084;81;21063;-83
2022/05/31 03:00:38;;;;;;;12.55;11.38;;;;;;;16.88;100.00;100842.91;1673044;85;21174;-88
2022/05/31 03:03:24;;;;;;;12.90;11.60;;;;;;;16.97;100.00;100835.96;1728614;81;21703;-85
2022/05/31 03:06:10;;;;;;;14.50;10.98;;;;;;;17.06;100.00;100838.16;1728576;81;21465;-85
2022/05/31 03:08:40;;;;;;;16.80;12.55;;;;;;;17.14;100.00;100838.22;1732941;81;21496;-85
2022/05/31 03:11:23;;;;;;;13.13;11.93;;;;;;;17.21;100.00;100837.94;1728622;81;21478;-84
2022/05/31 03:13:54;;;;;;;13.10;11.73;;;;;;;17.27;100.00;100842.58;1689021;82;21167;-87
2022/05/31 03:16:24;;;;;;;18.07;11.70;;;;;;;17.34;100.00;100832.27;1732078;81;21031;-88
2022/05/31 03:18:57;;;;;;;14.43;11.18;;;;;;;17.41;100.00;100838.56;1728328;81;21011;-85
2022/05/31 03:21:30;;;;;;;14.30;11.38;;;;;;;17.49;100.00;100833.36;1725947;81;21501;-85
2022/05/31 03:24:02;;;;;;;13.30;11.33;;;;;;;17.61;100.00;100830.47;1666269;85;21051;-85
2022/05/31 03:26:32;;;;;;;12.40;11.15;;;;;;;17.73;100.00;100831.02;1697500;83;21906;-85
2022/05/31 03:29:01;;;;;;;12.00;10.68;;;;;;;17.86;100.00;100832.72;1699192;82;27862;-87
2022/05/31 03:31:31;;;;;;;14.15;10.23;;;;;;;18.01;100.00;100829.52;1696298;83;21398;-86
2022/05/31 03:33:58;;;;;;;11.78;10.72;;;;;;;18.16;100.00;100830.55;1696267;83;21044;-87
2022/05/31 03:36:26;;;;;;;14.98;11.05;;;;;;;18.33;100.00;100830.59;1696212;83;21140;-86
2022/05/31 03:38:55;;;;;;;13.00;10.58;;;;;;;18.47;100.00;100831.78;1693049;83;21326;-89
2022/05/31 03:41:22;;;;;;;11.45;10.25;;;;;;;18.61;100.00;100828.51;1695768;83;21118;-87
2022/05/31 03:43:51;;;;;;;13.18;10.72;;;;;;;18.72;100.00;100825.56;1696086;83;21080;-86
2022/05/31 03:46:22;;;;;;;11.20;10.10;;;;;;;18.83;100.00;100831.00;1696199;83;21022;-86
2022/05/31 03:48:53;;;;;;;12.13;10.15;;;;;;;18.93;100.00;100831.38;1645694;83;20998;-86
2022/05/31 03:51:20;;;;;;;11.97;9.55;;;;;;;19.03;100.00;100829.37;1696366;83;21181;-84
2022/05/31 03:53:48;;;;;;;13.35;10.65;;;;;;;19.11;100.00;100821.45;1696514;83;21045;-84
2022/05/31 03:56:17;;;;;;;10.63;9.50;;;;;;;19.18;100.00;100822.45;1674928;84;21646;-87
2022/05/31 03:58:44;;;;;;;15.32;10.72;;;;;;;19.23;100.00;100818.81;1696097;83;21040;-88
2022/05/31 04:01:16;;;;;;;11.70;10.60;;;;;;;19.30;100.00;100822.09;1693029;83;21087;-86
2022/05/31 04:03:43;;;;;;;10.68;9.68;;;;;;;19.37;100.00;100819.95;1696553;84;21132;-86
2022/05/31 04:06:11;;;;;;;13.55;10.70;;;;;;;19.43;100.00;100812.33;1696255;84;21061;-85
2022/05/31 04:08:39;;;;;;;14.58;10.50;;;;;;;19.52;100.00;100813.45;1691217;83;21096;-85
2022/05/31 04:11:06;;;;;;;11.33;10.10;;;;;;;19.58;100.00;100808.50;1687546;83;21059;-87
2022/05/31 04:13:34;;;;;;;11.38;10.28;;;;;;;19.65;100.00;100809.47;1687161;83;21726;-85
2022/05/31 04:16:20;;;;;;;12.10;10.15;;;;;;;19.73;100.00;100801.52;1687372;83;21169;-85
2022/05/31 04:18:49;;;;;;;13.62;10.40;;;;;;;19.83;100.00;100800.79;1687575;83;21553;-85
2022/05/31 04:21:17;;;;;;;12.30;10.40;;;;;;;19.96;100.00;100800.27;1687198;83;21021;-85
2022/05/31 04:24:08;;;;;;;17.23;11.30;;;;;;;20.11;100.00;100796.91;1686985;83;21032;-86
2022/05/31 04:26:44;;;;;;;15.45;10.93;;;;;;;20.24;100.00;100797.64;1686881;83;21021;-87
2022/05/31 04:29:30;;;;;;;15.32;10.23;;;;;;;20.41;100.00;100800.51;1629923;86;21294;-86
2022/05/31 04:32:03;;;;;;;11.85;10.03;;;;;;;20.56;100.00;100794.45;1651024;85;21068;-85
2022/05/31 04:34:39;;;;;;;11.50;9.93;;;;;;;20.71;100.00;100796.64;1653167;83;21470;-86
2022/05/31 04:37:07;;;;;;;11.00;9.80;;;;;;;20.87;100.00;100798.89;1629753;86;21124;-86
2022/05/31 04:39:53;;;;;;;11.18;10.05;;;;;;;21.00;100.00;100798.25;1686988;83;21012;-84
2022/05/31 04:42:24;;;;;;;15.58;10.15;;;;;;;21.15;100.00;100802.25;1567609;87;22261;-86
2022/05/31 04:44:53;;;;;;;13.08;10.08;;;;;;;21.26;100.00;100799.98;1656086;85;21023;-85
2022/05/31 04:47:20;;;;;;;14.30;11.03;;;;;;;21.35;100.00;100800.70;1687095;83;21422;-84
2022/05/31 04:49:49;;;;;;;12.80;10.60;;;;;;;21.39;100.00;100799.35;1692487;83;21036;-87
2022/05/31 04:52:18;;;;;;;15.10;9.65;;;;;;;21.42;100.00;100797.67;1696785;83;21060;-88
2022/05/31 04:54:47;;;;;;;11.22;10.00;;;;;;;21.47;100.00;100798.94;1626465;86;21230;-85
2022/05/31 04:57:16;;;;;;;12.93;10.10;;;;;;;21.53;100.00;100795.55;1684291;83;21547;-88
2022/05/31 04:59:43;;;;;;;11.00;9.90;;;;;;;21.58;100.00;100790.06;1628317;86;21861;-88
2022/05/31 05:02:12;;;;;;;15.53;10.50;;;;;;;21.69;100.00;100799.36;1685249;84;21066;-85
2022/05/31 05:04:41;;;;;;;11.50;10.30;;;;;;;21.81;100.00;100805.02;1655982;85;21155;-85
2022/05/31 05:07:08;;;;;;;11.00;9.80;;;;;;;21.92;100.00;100802.91;1636415;84;21987;-86
2022/05/31 05:09:36;;;;;;;13.55;10.90;;;;;;;22.01;100.00;100797.30;1681140;83;21030;-84
2022/05/31 05:12:22;;;;;;;15.60;9.98;;;;;;;22.13;100.00;100804.78;1647163;87;21087;-87
2022/05/31 05:14:52;;;;;;;13.03;10.58;;;;;;;22.24;100.00;100797.64;1643892;87;21568;-88
2022/05/31 05:17:23;;;;;;;17.75;10.48;;;;;;;22.35;100.00;100793.70;1647327;87;21075;-86
2022/05/31 05:19:50;;;;;;;14.60;11.38;;;;;;;22.43;100.00;100796.75;1647326;85;21171;-85
2022/05/31 05:22:18;;;;;;;17.00;11.73;;;;;;;22.51;100.00;100799.27;1647055;85;21117;-85
2022/05/31 05:24:47;;;;;;;10.58;9.58;;;;;;;22.59;100.00;100798.34;1665869;86;21492;-85
2022/05/31 05:27:22;;;;;;;11.38;9.83;;;;;;;22.72;100.00;100793.63;1643870;86;21145;-85
2022/05/31 05:32:56;;;;;;;16.50;10.63;;;;;;;22.96;100.00;100794.53;1672864;85;21189;-86
2022/05/31 05:35:28;;;;;;;16.23;11.48;;;;;;;23.09;100.00;100798.31;1643799;87;21008;-87
2022/05/31 05:38:04;;;;;;;12.05;10.80;;;;;;;23.19;100.00;100793.52;1672792;85;21012;-88
2022/05/31 05:40:35;;;;;;;14.15;11.12;;;;;;;23.28;100.00;100787.01;1644059;87;21102;-89
2022/05/31 05:43:13;;;;;;;13.50;10.80;;;;;;;23.39;100.00;100784.34;1674146;84;21016;-88
2022/05/31 05:45:55;;;;;;;17.67;12.00;;;;;;;23.49;100.00;100783.97;1662455;84;21828;-88
2022/05/31 05:48:23;;;;;;;17.05;11.85;;;;;;;23.60;100.00;100776.74;1647054;87;21042;-88
2022/05/31 05:50:50;;;;;;;13.32;11.93;;;;;;;23.67;100.00;100779.44;1633467;84;21500;-89
2022/05/31 05:53:28;;;;;;;15.98;11.78;;;;;;;23.73;100.00;100770.66;1644243;87;21027;-87
2022/05/31 05:56:15;;;;;;;13.30;11.60;;;;;;;23.81;100.00;100766.19;1654922;84;21632;-89
2022/05/31 05:58:49;;;;;;;15.25;12.63;;;;;;;23.93;100.00;100762.78;1615707;85;21174;-90
2022/05/31 06:01:45;;;;;;;21.85;13.80;;;;;;;24.05;100.00;100766.20;1662152;84;21675;-88
2022/05/31 06:04:42;;;;;;;16.02;13.48;;;;;;;24.13;100.00;100761.19;1700452;81;21023;-87
2022/05/31 06:07:18;;;;;;;17.27;13.68;;;;;;;24.20;100.00;100767.34;1697813;83;21043;-90
2022/05/31 06:09:59;;;;;;;22.35;15.28;;;;;;;24.30;100.00;100766.44;1723232;81;21422;-89
2022/05/31 06:12:32;;;;;;;23.25;16.60;;;;;;;24.43;100.00;100768.30;1721698;81;21254;-90
2022/05/31 06:15:04;;;;;;;31.10;18.65;;;;;;;24.56;100.00;100762.97;1717662;81;20932;-89
2022/05/31 06:17:37;;;;;;;24.10;18.02;;;;;;;24.71;100.00;100763.33;1724684;81;21023;-87
2022/05/31 06:20:08;;;;;;;24.45;18.85;;;;;;;24.80;100.00;100752.75;1722707;81;21035;-90
2022/05/31 06:22:39;;;;;;;29.90;21.90;;;;;;;24.88;100.00;100753.87;1710369;82;21118;-92
2022/05/31 06:25:14;;;;;;;32.30;22.82;;;;;;;25.01;100.00;100754.89;1711526;82;21789;-91
2022/05/31 06:27:43;;;;;;;31.12;22.00;;;;;;;25.08;100.00;100753.55;1702218;82;21556;-89
2022/05/31 06:30:12;;;;;;;32.20;24.98;;;;;;;25.09;100.00;100755.16;1734196;82;21083;-90
2022/05/31 06:32:41;;;;;;;31.33;25.57;;;;;;;25.10;100.00;100749.65;1707833;82;21010;-89
2022/05/31 06:35:08;;;;;;;40.05;27.22;;;;;;;25.14;100.00;100750.05;1707703;82;21024;-89
2022/05/31 06:37:37;;;;;;;43.83;27.90;;;;;;;25.20;100.00;100756.67;1711822;82;21925;-90
2022/05/31 06:40:06;;;;;;;37.50;29.42;;;;;;;25.26;100.00;100766.21;1707738;82;21048;-90
2022/05/31 06:42:44;;;;;;;43.58;31.73;;;;;;;25.30;100.00;100760.75;1710933;82;21028;-89
2022/05/31 06:45:13;;;;;;;50.45;34.38;;;;;;;25.38;100.00;100769.84;1690364;82;21012;-88
2022/05/31 06:47:51;;;;;;;49.93;33.75;;;;;;;25.50;100.00;100776.70;1678119;82;21059;-87
2022/05/31 06:50:37;;;;;;;46.50;36.13;;;;;;;25.56;100.00;100783.05;1707938;82;21114;-89
2022/05/31 06:59:00;;;;;;;51.33;38.13;;;;;;;25.79;100.00;100778.55;1667825;83;21594;-90
2022/05/31 07:01:32;;;;;;;52.45;37.73;;;;;;;25.89;100.00;100779.42;1707888;82;21035;-87
2022/05/31 07:04:00;;;;;;;51.28;38.17;;;;;;;25.95;100.00;100782.56;1707941;82;21769;-87
2022/05/31 07:06:28;;;;;;;55.90;39.75;;;;;;;26.01;100.00;100776.36;1708003;82;20973;-86
2022/05/31 07:09:00;;;;;;;57.85;39.75;;;;;;;26.06;100.00;100781.05;1721549;81;21074;-85
2022/05/31 07:11:31;;;;;;;59.18;40.58;;;;;;;26.11;100.00;100782.08;1728252;81;21062;-87
2022/05/31 07:14:16;;;;;;;57.60;39.60;;;;;;;26.19;100.00;100784.19;1699543;81;21035;-86
2022/05/31 07:17:04;;;;;;;61.92;41.00;;;;;;;26.24;100.00;100781.72;1725510;81;21260;-86
2022/05/31 07:19:44;;;;;;;61.65;41.37;;;;;;;26.27;100.00;100776.77;1728497;81;21473;-89
2022/05/31 07:22:11;;;;;;;56.65;39.85;;;;;;;26.36;100.00;100777.30;1726206;81;21016;-88
2022/05/31 07:24:38;;;;;;;58.52;40.35;;;;;;;26.47;100.00;100774.45;1725892;81;21028;-87
2022/05/31 07:27:07;;;;;;;57.45;40.45;;;;;;;26.55;100.00;100772.84;1717044;81;21039;-88
2022/05/31 07:29:36;;;;;;;50.60;38.83;;;;;;;26.64;100.00;100772.56;1726086;81;21149;-89
2022/05/31 07:32:04;;;;;;;54.25;39.00;;;;;;;26.69;100.00;100767.38;1725944;81;21573;-90
2022/05/31 07:34:34;;;;;;;58.65;39.65;;;;;;;26.76;100.00;100770.33;1726326;81;21011;-89
2022/05/31 07:37:01;;;;;;;54.83;37.55;;;;;;;26.87;100.00;100765.31;1726259;81;21079;-88
2022/05/31 07:39:31;;;;;;;54.55;36.53;;;;;;;26.97;100.00;100766.14;1726227;81;21559;-85
2022/05/31 07:42:01;;;;;;;50.95;36.05;;;;;;;27.08;100.00;100762.21;1726315;81;21232;-89
2022/05/31 07:44:28;;;;;;;48.87;34.10;;;;;;;27.22;100.00;100759.38;1726770;81;21077;-87
2022/05/31 07:47:01;;;;;;;38.17;32.15;;;;;;;27.32;100.00;100749.53;1726316;81;21053;-87
2022/05/31 07:49:29;;;;;;;47.78;33.45;;;;;;;27.44;100.00;100750.96;1726253;81;21580;-86
2022/05/31 07:52:53;;;;;;;46.28;31.90;;;;;;;27.63;100.00;100747.20;1726294;81;20979;-86
2022/05/31 07:56:00;;;;;;;38.95;28.57;;;;;;;27.81;100.00;100747.67;1726191;81;21504;-87
2022/05/31 07:58:47;;;;;;;32.70;24.43;;;;;;;27.99;100.00;100745.48;1726297;81;21592;-87
2022/05/31 08:01:33;;;;;;;36.55;24.82;;;;;;;28.14;100.00;100742.39;1726227;81;21031;-89
2022/05/31 08:04:02;;;;;;;31.62;23.95;;;;;;;28.25;100.00;100742.11;1728739;81;21615;-92
2022/05/31 08:06:33;;;;;;;30.25;21.77;;;;;;;28.28;100.00;100743.00;1725805;81;21047;-89
2022/05/31 08:09:02;;;;;;;31.05;22.35;;;;;;;28.29;100.00;100734.44;1718315;81;21104;-89
2022/05/31 08:11:33;;;;;;;38.45;24.18;;;;;;;28.39;100.00;100733.89;1708047;82;21545;-90
2022/05/31 08:14:03;;;;;;;33.38;24.43;;;;;;;28.45;100.00;100738.31;1707713;82;21031;-89
2022/05/31 08:16:31;;;;;;;32.38;22.80;;;;;;;28.49;100.00;100738.13;1708027;82;21674;-87
2022/05/31 08:19:04;;;;;;;31.87;22.93;;;;;;;28.53;100.00;100729.09;1708049;82;20981;-87
2022/05/31 08:21:32;;;;;;;32.90;22.27;;;;;;;28.60;100.00;100731.16;1707990;82;21141;-87
2022/05/31 08:24:16;;;;;;;31.90;21.75;;;;;;;28.65;100.00;100728.59;1707913;82;21521;-87
2022/05/31 08:26:43;;;;;;;27.77;19.98;;;;;;;28.72;100.00;100727.97;1708338;82;21035;-89
2022/05/31 08:29:17;;;;;;;29.23;19.82;;;;;;;28.80;100.00;100721.46;1707911;82;21028;-88
2022/05/31 08:31:44;;;;;;;25.65;18.45;;;;;;;28.84;100.00;100719.92;1708108;82;21545;-93
2022/05/31 08:34:13;;;;;;;33.70;18.67;;;;;;;28.85;96.61;100713.52;1707917;82;21197;-94
2022/05/31 08:36:42;;;;;;;26.85;18.27;;;;;;;28.87;96.97;100714.11;1707986;82;21051;-88
2022/05/31 08:39:10;;;;;;;24.47;17.85;;;;;;;29.00;100.00;100710.36;1707740;82;21052;-89
2022/05/31 08:41:45;;;;;;;28.35;18.92;;;;;;;29.20;100.00;100714.49;1707862;82;20993;-87
2022/05/31 08:44:39;;;;;;;20.20;15.58;;;;;;;29.41;100.00;100709.84;1711185;82;21043;-87
2022/05/31 08:47:44;;;;;;;28.52;15.78;;;;;;;29.55;100.00;100708.23;1707922;82;21259;-87
2022/05/31 08:57:49;;;;;;;27.70;17.37;;;;;;;30.03;97.79;100710.98;1708091;82;21660;-87
2022/05/31 09:00:21;;;;;;;22.60;16.48;;;;;;;30.22;83.98;100709.38;1708072;82;21033;-88
2022/05/31 09:03:09;;;;;;;22.05;16.93;;;;;;;30.17;83.04;100703.39;1709300;83;21248;-90
2022/05/31 09:06:09;;;;;;;22.22;15.95;;;;;;;30.13;88.79;100707.64;1674490;85;21038;-89
2022/05/31 09:17:50;;;;;;;24.85;15.85;;;;;;;30.10;98.81;100697.92;1676440;85;21046;-86
2022/05/31 09:29:14;;;;;;;23.47;16.25;;;;;;;30.88;89.37;100689.11;1628934;86;21137;-85
2022/05/31 10:24:52;;;;;;;16.80;11.75;;;;;;;31.80;65.67;100679.09;1656756;83;21026;-86
2022/05/31 10:40:34;;;;;;;12.23;9.08;;;;;;;32.13;61.48;100667.22;1618102;87;21137;-86
2022/05/31 11:12:22;;;;;;;11.18;6.22;;;;;;;31.63;63.44;100651.73;1638747;86;21105;-84
2022/05/31 11:56:32;;;;;;;9.75;5.95;;;;;;;32.28;61.14;100591.12;1669621;84;21029;-85
2022/05/31 12:36:05;;;;;;;7.85;5.25;;;;;;;33.26;50.66;100530.75;1618786;87;21043;-85
2022/05/31 13:21:30;;;;;;;6.12;4.95;;;;;;;33.55;46.24;100499.73;1713151;83;21060;-84
2022/05/31 13:28:06;;;;;;;17.25;6.72;;;;;;;33.55;48.92;100496.48;1690798;83;21025;-85
2022/05/31 13:31:16;;;;;;;18.20;6.10;;;;;;;33.14;49.38;100500.53;1694177;83;21174;-85
2022/05/31 13:42:05;;;;;;;8.70;5.53;;;;;;;32.31;51.77;100507.11;1712122;77;21074;-86
2022/05/31 13:56:37;;;;;;;12.75;6.72;;;;;;;27.35;76.18;100573.97;1697785;81;21917;-86
2022/05/31 14:03:35;;;;;;;11.63;7.70;;;;;;;26.24;100.00;100584.24;1696963;81;21086;-88
2022/05/31 14:06:18;;;;;;;14.18;8.25;;;;;;;25.82;100.00;100597.59;1707521;82;21274;-85
2022/05/31 14:08:54;;;;;;;14.38;8.65;;;;;;;25.61;100.00;100603.27;1701298;82;21582;-88
2022/05/31 14:15:30;;;;;;;15.78;9.60;;;;;;;25.46;100.00;100626.25;1718229;82;21048;-89
2022/05/31 14:18:20;;;;;;;14.25;9.10;;;;;;;25.51;100.00;100631.24;1723468;82;21137;-90
2022/05/31 14:24:17;;;;;;;17.12;8.80;;;;;;;25.66;100.00;100616.27;1705427;82;22305;-88
2022/05/31 14:27:12;;;;;;;15.60;7.97;;;;;;;25.58;100.00;100605.86;1672995;84;21078;-87
2022/05/31 14:33:22;;;;;;;12.93;7.70;;;;;;;25.36;100.00;100586.19;1689218;84;21015;-87
2022/05/31 14:35:53;;;;;;;11.53;7.60;;;;;;;25.25;100.00;100586.05;1680747;82;21307;-90
2022/05/31 14:38:42;;;;;;;15.90;8.30;;;;;;;25.17;100.00;100601.26;1647790;85;21074;-83
2022/05/31 14:41:31;;;;;;;14.65;8.10;;;;;;;25.16;100.00;100608.11;1686742;83;21107;-95
2022/05/31 14:44:00;;;;;;;13.32;8.68;;;;;;;25.18;100.00;100618.88;1702759;81;21025;-94
2022/05/31 14:46:36;;;;;;;13.50;7.67;;;;;;;25.13;100.00;100624.54;1704029;82;21601;-92
2022/05/31 14:49:11;;;;;;;17.77;8.23;;;;;;;25.07;100.00;100634.72;1690097;82;21530;-91
2022/05/31 14:51:42;;;;;;;21.35;16.05;;;;;;;25.04;100.00;100657.23;1687276;80;20982;-92
2022/05/31 14:54:43;;;;;;;24.72;17.70;;;;;;;25.02;100.00;100669.44;1750454;80;21046;-93
2022/05/31 15:00:15;;;;;;;15.40;8.95;;;;;;;25.01;100.00;100701.09;1703066;82;21006;-92
2022/05/31 15:02:47;;;;;;;12.00;9.05;;;;;;;24.99;100.00;100710.33;1761567;80;20976;-95
2022/05/31 15:05:23;;;;;;;13.47;10.37;;;;;;;24.96;100.00;100718.72;1719493;81;21503;-92
2022/05/31 15:07:55;;;;;;;16.12;9.98;;;;;;;24.97;100.00;100719.86;1751921;79;22237;-96
2022/05/31 15:10:29;;;;;;;15.32;11.15;;;;;;;24.97;100.00;100725.69;1741841;81;21488;-92
2022/05/31 15:21:22;;;;;;;15.00;10.80;;;;;;;24.65;100.00;100732.16;1717042;81;21532;-96
2022/05/31 15:23:51;;;;;;;17.82;10.90;;;;;;;24.53;100.00;100731.95;1717228;80;21551;-95
2022/05/31 15:26:20;;;;;;;14.30;10.55;;;;;;;24.49;100.00;100727.56;1687729;83;21134;-96
2022/05/31 15:28:53;;;;;;;16.35;11.18;;;;;;;24.49;100.00;100723.56;1703543;78;21138;-96
2022/05/31 15:31:32;;;;;;;16.48;10.53;;;;;;;24.51;100.00;100722.86;1745155;80;21504;-94
2022/05/31 15:34:02;;;;;;;13.30;9.65;;;;;;;24.52;100.00;100717.01;1741396;78;21157;-91
2022/05/31 15:36:32;;;;;;;15.78;9.30;;;;;;;24.48;100.00;100714.47;1679736;79;21074;-93
2022/05/31 15:39:00;;;;;;;15.68;9.15;;;;;;;24.42;100.00;100705.45;1657607;83;21035;-93
2022/05/31 15:41:29;;;;;;;10.18;8.00;;;;;;;24.36;100.00;100707.61;1696995;82;21527;-95
2022/05/31 15:44:02;;;;;;;16.95;8.80;;;;;;;24.30;100.00;100698.59;1707592;82;21077;-96
2022/05/31 15:46:34;;;;;;;12.28;8.85;;;;;;;24.24;100.00;100701.55;1707808;81;21630;-96
2022/05/31 15:49:05;;;;;;;18.30;9.25;;;;;;;24.19;100.00;100704.02;1665174;82;21073;-96
2022/05/31 15:51:43;;;;;;;16.80;8.58;;;;;;;24.14;100.00;100718.95;1758857;77;20925;-95
2022/05/31 15:54:21;;;;;;;16.45;8.30;;;;;;;24.07;100.00;100721.62;1784387;78;21263;-95
2022/05/31 15:56:49;;;;;;;17.40;9.03;;;;;;;24.00;100.00;100724.75;1768281;79;21936;-89
2022/05/31 15:59:29;;;;;;;17.75;9.58;;;;;;;23.91;100.00;100732.91;1768951;79;21103;-96
2022/05/31 16:01:57;;;;;;;14.80;8.50;;;;;;;23.85;100.00;100729.70;1770252;79;21553;-91
2022/05/31 16:04:27;;;;;;;14.73;8.28;;;;;;;23.79;100.00;100722.05;1764809;79;21045;-95
2022/05/31 16:06:56;;;;;;;17.90;8.73;;;;;;;23.80;100.00;100724.17;1780590;78;21892;-92
2022/05/31 16:09:29;;;;;;;11.95;8.25;;;;;;;23.81;100.00;100723.66;1763421;79;21076;-96
2022/05/31 16:11:59;;;;;;;18.73;8.98;;;;;;;23.79;100.00;100723.38;1750038;79;21093;-90
2022/05/31 16:14:30;;;;;;;17.30;8.68;;;;;;;23.78;100.00;100730.20;1748446;81;21111;-92
2022/05/31 16:16:58;;;;;;;14.18;8.33;;;;;;;23.78;100.00;100733.69;1774006;80;21060;-96
2022/05/31 16:19:25;;;;;;;18.65;9.23;;;;;;;23.79;100.00;100732.67;1752582;78;21563;-92
2022/05/31 16:21:52;;;;;;;13.15;8.05;;;;;;;23.79;100.00;100730.52;1745356;80;21034;-95
2022/05/31 16:24:23;;;;;;;13.65;8.48;;;;;;;23.76;100.00;100732.23;1751934;80;21488;-96
2022/05/31 16:26:52;;;;;;;17.75;7.90;;;;;;;23.75;100.00;100731.95;1741638;80;21026;-92
2022/05/31 16:29:20;;;;;;;15.80;8.25;;;;;;;23.71;100.00;100744.81;1709729;81;21067;-90
2022/05/31 16:31:48;;;;;;;13.88;8.45;;;;;;;23.68;100.00;100757.66;1744464;80;21131;-92
2022/05/31 16:34:21;;;;;;;18.02;8.20;;;;;;;23.63;100.00;100764.41;1742435;80;21175;-92
2022/05/31 16:36:51;;;;;;;20.23;8.50;;;;;;;23.59;100.00;100775.63;1709601;81;21106;-94